Time;durP1;ratioP1;P1;durP2;ratioP2;P2;SDS_P1;SDS_P2;PMS_P1;PMS_P2;Temp;Humidity;BMP_temperature;BMP_pressure;BME280_temperature;BME280_humidity;BME280_pressure;Samples;Min_cycle;Max_cycle;Signal;HPM_P1;HPM_P2
2021/05/06 00:02:29;;;;;;;3.40;1.70;;;;;;;7.94;71.64;99885.31;5014773;28;20498;-86
2021/05/06 00:34:35;;;;;;;4.57;1.52;;;;;;;7.51;74.45;99843.66;5019664;28;20057;-86
2021/05/06 00:37:00;;;;;;;2.58;1.35;;;;;;;7.56;74.64;99841.56;5012713;28;20025;-86
2021/05/06 00:39:50;;;;;;;5.90;2.08;;;;;;;7.61;74.08;99838.66;5013217;28;20040;-86
2021/05/06 00:42:31;;;;;;;2.88;1.35;;;;;;;7.63;74.07;99837.63;5017484;28;20061;-86
2021/05/06 01:01:15;;;;;;;5.38;1.50;;;;;;;6.77;77.63;99809.09;5012087;28;20049;-86
2021/05/06 01:03:55;;;;;;;4.78;1.80;;;;;;;6.77;77.58;99811.72;5011876;28;20408;-86
2021/05/06 01:06:21;;;;;;;2.72;1.52;;;;;;;6.73;76.82;99808.47;5014984;28;20686;-85
2021/05/06 01:08:54;;;;;;;1.95;1.45;;;;;;;6.68;77.31;99800.09;5018440;28;20062;-86
2021/05/06 01:14:06;;;;;;;3.05;1.08;;;;;;;6.52;78.04;99794.13;5030344;28;20048;-86
2021/05/06 01:16:31;;;;;;;4.60;1.25;;;;;;;6.57;77.81;99792.06;5031600;28;20033;-86
2021/05/06 01:18:56;;;;;;;2.78;1.30;;;;;;;6.52;77.31;99779.31;5017142;28;20022;-86
2021/05/06 01:21:22;;;;;;;2.53;1.45;;;;;;;6.39;77.61;99774.94;5031102;28;20083;-86
2021/05/06 01:23:48;;;;;;;3.38;1.60;;;;;;;6.42;78.02;99780.81;5029873;28;20022;-86
2021/05/06 01:26:19;;;;;;;6.13;1.85;;;;;;;6.21;76.87;99775.13;5013641;28;20395;-86
2021/05/06 01:31:25;;;;;;;4.88;1.25;;;;;;;6.03;77.22;99763.19;5010972;28;20497;-86
2021/05/06 01:34:09;;;;;;;5.80;1.60;;;;;;;5.87;78.69;99763.22;5028466;28;20104;-86
2021/05/06 01:36:43;;;;;;;4.05;1.50;;;;;;;5.67;78.68;99760.00;5030234;28;20117;-86
2021/05/06 01:44:28;;;;;;;6.32;1.65;;;;;;;5.59;79.49;99748.34;5011303;28;20022;-86
2021/05/06 01:47:16;;;;;;;5.50;1.73;;;;;;;5.75;79.06;99755.19;5012697;28;20384;-86
2021/05/06 01:58:04;;;;;;;3.20;2.10;;;;;;;5.57;81.37;99748.44;4973599;28;20065;-86
2021/05/06 02:00:36;;;;;;;11.93;3.47;;;;;;;5.80;81.23;99743.66;5016062;28;20096;-86
2021/05/06 02:03:02;;;;;;;4.68;1.42;;;;;;;5.89;80.62;99743.97;5031297;28;20825;-86
2021/05/06 02:05:28;;;;;;;2.30;1.20;;;;;;;5.97;79.70;99740.94;5031782;28;20415;-86
2021/05/06 02:07:53;;;;;;;4.18;1.60;;;;;;;6.26;79.13;99743.53;5030269;28;20018;-86
2021/05/06 02:10:23;;;;;;;5.57;2.38;;;;;;;6.10;78.87;99738.41;5016304;28;20053;-86
2021/05/06 02:12:49;;;;;;;4.88;1.40;;;;;;;6.25;76.79;99734.88;5016951;28;20025;-86
2021/05/06 02:15:19;;;;;;;3.72;1.27;;;;;;;6.04;77.83;99733.56;5032554;28;20432;-86
2021/05/06 02:17:46;;;;;;;3.38;1.25;;;;;;;6.04;77.56;99729.22;5015696;28;20034;-86
2021/05/06 02:20:12;;;;;;;4.68;1.30;;;;;;;6.07;78.22;99723.81;5015715;28;20424;-86
2021/05/06 02:22:37;;;;;;;1.67;1.30;;;;;;;6.12;76.99;99731.34;5014799;28;20075;-86
2021/05/06 02:25:07;;;;;;;2.72;1.15;;;;;;;5.91;77.74;99729.06;5031692;28;20030;-86
2021/05/06 02:27:33;;;;;;;6.22;1.50;;;;;;;5.72;77.48;99729.31;5022925;28;20033;-86
2021/05/06 02:29:58;;;;;;;1.67;1.13;;;;;;;5.50;77.49;99719.31;5015970;28;20120;-86
2021/05/06 02:32:24;;;;;;;3.88;1.13;;;;;;;5.12;79.42;99719.75;5019337;28;20110;-86
2021/05/06 02:34:50;;;;;;;5.57;1.52;;;;;;;5.10;80.39;99705.97;5031563;28;20022;-86
2021/05/06 02:37:15;;;;;;;4.03;1.33;;;;;;;5.35;79.71;99709.78;5028876;28;20025;-86
2021/05/06 02:39:41;;;;;;;5.75;1.23;;;;;;;5.42;79.83;99700.69;5019980;28;20032;-86
2021/05/06 02:42:06;;;;;;;4.30;1.30;;;;;;;5.41;78.72;99698.16;5014302;28;20101;-86
2021/05/06 02:44:35;;;;;;;3.38;1.20;;;;;;;5.39;78.83;99700.03;5021130;28;20030;-87
2021/05/06 02:47:00;;;;;;;2.25;1.25;;;;;;;5.36;78.85;99699.28;5031713;28;20506;-86
2021/05/06 02:49:26;;;;;;;3.58;1.20;;;;;;;5.32;78.65;99689.97;5014497;28;20034;-86
2021/05/06 02:51:59;;;;;;;2.88;1.13;;;;;;;5.20;80.08;99690.69;5013899;28;20034;-86
2021/05/06 02:54:24;;;;;;;2.55;1.17;;;;;;;5.29;79.73;99687.56;5016291;28;20029;-85
2021/05/06 03:04:45;;;;;;;4.03;1.60;;;;;;;5.44;78.85;99675.41;5032243;28;20179;-86
2021/05/06 03:07:12;;;;;;;3.08;1.00;;;;;;;5.48;78.43;99681.28;5024782;28;20026;-86
2021/05/06 03:15:10;;;;;;;3.97;1.80;;;;;;;5.42;79.64;99669.44;5031934;28;20026;-86
2021/05/06 03:23:03;;;;;;;5.63;1.25;;;;;;;5.60;79.58;99661.50;5023575;28;20033;-86
2021/05/06 03:25:30;;;;;;;6.45;1.30;;;;;;;5.74;79.65;99653.69;5020737;28;20030;-86
2021/05/06 03:35:38;;;;;;;4.18;1.38;;;;;;;6.70;76.81;99644.28;5033115;28;20487;-86
2021/05/06 04:16:38;;;;;;;7.38;1.85;;;;;;;7.04;76.72;99616.00;5028681;28;20052;-86
2021/05/06 04:37:06;;;;;;;3.75;1.48;;;;;;;7.60;76.28;99562.66;5030985;28;20048;-85
2021/05/06 04:39:56;;;;;;;2.38;1.30;;;;;;;7.75;76.06;99561.59;5030606;28;20026;-86
2021/05/06 04:42:50;;;;;;;4.18;1.45;;;;;;;7.63;75.88;99570.31;5013280;28;20029;-86
2021/05/06 05:20:12;;;;;;;3.35;1.58;;;;;;;8.25;73.61;99559.78;5031591;28;20026;-85
2021/05/06 05:25:36;;;;;;;5.10;1.60;;;;;;;8.20;73.10;99554.06;4994280;28;20487;-84
2021/05/06 05:28:05;;;;;;;2.78;1.50;;;;;;;8.25;73.37;99562.41;5016150;28;20121;-85
2021/05/06 05:30:33;;;;;;;2.30;1.30;;;;;;;8.15;73.52;99561.41;5025118;28;20457;-85
2021/05/06 05:32:59;;;;;;;2.88;1.42;;;;;;;7.87;74.59;99560.75;5035999;28;20029;-86
2021/05/06 05:38:28;;;;;;;2.28;1.30;;;;;;;8.38;73.77;99553.69;5025266;28;20041;-85
2021/05/06 05:43:44;;;;;;;4.05;1.42;;;;;;;8.64;72.74;99557.06;4996109;28;20062;-85
2021/05/06 05:56:49;;;;;;;5.25;1.40;;;;;;;8.99;70.73;99564.09;5033195;28;20026;-85
2021/05/06 05:59:15;;;;;;;4.82;1.30;;;;;;;9.01;71.23;99564.81;5030129;28;20030;-85
2021/05/06 06:01:40;;;;;;;3.67;1.30;;;;;;;9.02;70.78;99566.47;5014970;28;20040;-85
2021/05/06 06:04:05;;;;;;;2.53;1.15;;;;;;;8.97;71.66;99560.75;5016238;28;20067;-86
2021/05/06 06:06:31;;;;;;;4.15;1.40;;;;;;;8.96;71.17;99566.91;5014976;28;20109;-85
2021/05/06 06:08:57;;;;;;;2.72;1.20;;;;;;;9.18;69.86;99560.91;5014539;28;20034;-85
2021/05/06 06:11:22;;;;;;;5.70;1.40;;;;;;;9.40;69.41;99571.44;5015602;28;20446;-86
2021/05/06 06:13:51;;;;;;;6.50;1.48;;;;;;;9.49;69.57;99570.72;5014908;28;20084;-85
2021/05/06 06:16:23;;;;;;;2.88;1.70;;;;;;;10.36;65.09;99575.31;5034359;28;20402;-85
2021/05/06 06:18:55;;;;;;;2.47;1.10;;;;;;;10.70;64.10;99573.44;5033049;28;20380;-85
2021/05/06 06:23:46;;;;;;;4.63;1.58;;;;;;;10.94;61.91;99574.16;5016469;28;20066;-86
2021/05/06 06:26:12;;;;;;;8.55;1.35;;;;;;;11.14;60.50;99572.50;5026592;28;20052;-85
2021/05/06 06:28:45;;;;;;;4.03;1.50;;;;;;;11.30;59.94;99576.34;5014594;28;20025;-85
2021/05/06 06:31:18;;;;;;;4.70;1.67;;;;;;;11.28;59.61;99572.19;5017472;28;20392;-85
2021/05/06 06:33:43;;;;;;;9.07;1.55;;;;;;;11.22;58.98;99572.72;5016530;28;20030;-85
2021/05/06 06:36:09;;;;;;;8.73;1.95;;;;;;;11.21;60.85;99571.84;5028312;28;20033;-85
2021/05/06 06:38:34;;;;;;;5.70;1.30;;;;;;;11.37;60.71;99565.31;5014513;28;20026;-85
2021/05/06 06:41:01;;;;;;;4.80;1.45;;;;;;;11.43;60.50;99570.03;5022864;28;20029;-85
2021/05/06 06:43:26;;;;;;;3.75;1.33;;;;;;;11.41;60.57;99572.78;5021221;28;20447;-85
2021/05/06 06:45:52;;;;;;;4.22;1.38;;;;;;;11.21;61.09;99576.28;5028910;28;20057;-85
2021/05/06 06:48:17;;;;;;;6.53;1.42;;;;;;;11.22;60.61;99572.72;5033422;28;20029;-85
2021/05/06 06:50:43;;;;;;;5.50;2.05;;;;;;;11.25;59.76;99568.00;5020469;28;20053;-85
2021/05/06 06:53:12;;;;;;;4.88;1.42;;;;;;;11.31;61.26;99569.28;5014300;28;20430;-85
2021/05/06 06:55:37;;;;;;;6.85;1.55;;;;;;;10.68;64.12;99572.72;5013865;28;20396;-85
2021/05/06 06:58:13;;;;;;;3.45;1.20;;;;;;;10.33;67.28;99578.22;5012983;28;20088;-85
2021/05/06 07:00:45;;;;;;;4.68;1.50;;;;;;;10.30;68.94;99568.78;5014021;28;20030;-85
2021/05/06 07:03:12;;;;;;;12.30;1.90;;;;;;;10.21;68.09;99572.13;5004765;28;20022;-86
2021/05/06 07:05:38;;;;;;;6.05;2.08;;;;;;;10.32;67.80;99566.03;5012976;28;20120;-85
2021/05/06 07:08:26;;;;;;;7.03;1.42;;;;;;;10.35;68.78;99567.56;5013044;28;20113;-86
2021/05/06 07:10:53;;;;;;;3.35;1.40;;;;;;;10.67;67.60;99559.72;5013149;28;20061;-86
2021/05/06 07:13:20;;;;;;;2.90;1.25;;;;;;;10.69;68.12;99561.25;5012965;28;20396;-86
2021/05/06 07:15:50;;;;;;;4.80;2.65;;;;;;;10.80;67.13;99560.38;5012881;28;20026;-85
2021/05/06 07:18:16;;;;;;;4.97;2.00;;;;;;;10.81;66.23;99562.03;5011875;28;20029;-86
2021/05/06 07:20:44;;;;;;;6.47;1.52;;;;;;;10.96;65.83;99561.72;5013226;28;20133;-86
2021/05/06 07:23:14;;;;;;;9.93;1.92;;;;;;;10.87;66.95;99561.53;5012373;28;20491;-84
2021/05/06 07:25:39;;;;;;;4.13;1.23;;;;;;;10.92;66.65;99553.28;5012551;28;20057;-87
2021/05/06 07:28:18;;;;;;;6.65;1.90;;;;;;;10.80;66.18;99546.41;5019110;28;20059;-86
2021/05/06 07:30:51;;;;;;;2.95;1.23;;;;;;;10.69;68.19;99547.31;5015045;28;20084;-85
2021/05/06 07:33:17;;;;;;;3.92;1.48;;;;;;;10.90;65.93;99553.41;5013325;28;20084;-88
2021/05/06 07:35:43;;;;;;;6.07;1.30;;;;;;;11.26;63.98;99547.84;5017348;28;20025;-88
2021/05/06 07:38:09;;;;;;;9.25;2.65;;;;;;;11.22;65.46;99546.44;5013889;28;20420;-88
2021/05/06 07:40:37;;;;;;;3.97;1.83;;;;;;;11.69;64.80;99554.69;5013799;28;20290;-89
2021/05/06 07:43:05;;;;;;;5.30;1.85;;;;;;;11.77;65.51;99557.50;5012432;28;20026;-88
2021/05/06 07:45:31;;;;;;;2.63;1.10;;;;;;;11.89;63.51;99556.44;5027974;28;20029;-85
2021/05/06 07:48:00;;;;;;;5.10;1.42;;;;;;;12.07;61.80;99561.91;5025859;28;20021;-86
2021/05/06 07:50:26;;;;;;;4.70;1.08;;;;;;;12.29;60.75;99560.84;5011585;28;20558;-85
2021/05/06 07:52:54;;;;;;;4.57;1.25;;;;;;;12.55;59.50;99556.84;5010250;28;20117;-85
2021/05/06 07:55:21;;;;;;;6.00;1.80;;;;;;;12.73;57.21;99551.72;5013156;28;20053;-86
2021/05/06 07:57:46;;;;;;;4.55;1.20;;;;;;;13.04;57.21;99555.03;5014372;28;20042;-85
2021/05/06 08:00:17;;;;;;;5.50;1.88;;;;;;;12.98;57.99;99552.97;5014015;28;20030;-85
2021/05/06 08:02:43;;;;;;;6.45;1.20;;;;;;;13.24;55.74;99555.81;5011587;28;20029;-85
2021/05/06 08:05:09;;;;;;;14.93;3.53;;;;;;;13.08;56.43;99554.59;5014831;28;20056;-85
2021/05/06 08:07:35;;;;;;;9.50;2.58;;;;;;;13.04;57.15;99555.84;5012186;28;20033;-85
2021/05/06 08:10:00;;;;;;;4.00;1.73;;;;;;;13.26;55.70;99551.25;5018774;28;20041;-85
2021/05/06 08:12:26;;;;;;;3.17;1.52;;;;;;;13.29;55.84;99553.59;5021377;28;20034;-85
2021/05/06 08:14:53;;;;;;;5.00;1.67;;;;;;;13.33;55.03;99552.38;5025304;28;20030;-85
2021/05/06 08:17:19;;;;;;;4.20;1.45;;;;;;;12.98;58.93;99556.44;5018287;28;20041;-85
2021/05/06 08:19:46;;;;;;;2.25;1.20;;;;;;;13.44;57.71;99554.00;5015766;28;20097;-85
2021/05/06 08:22:11;;;;;;;7.45;1.98;;;;;;;13.41;56.88;99563.03;5011965;28;20029;-86
2021/05/06 08:24:37;;;;;;;4.40;1.75;;;;;;;13.55;55.90;99558.28;5013185;28;20372;-86
2021/05/06 08:27:02;;;;;;;4.05;2.22;;;;;;;13.77;56.30;99562.38;5014525;28;20064;-85
2021/05/06 08:29:28;;;;;;;2.22;1.55;;;;;;;13.72;58.38;99556.69;5015290;28;20036;-85
2021/05/06 08:31:54;;;;;;;9.75;1.77;;;;;;;13.75;55.57;99562.50;5016222;28;20022;-85
2021/05/06 08:34:19;;;;;;;6.55;2.03;;;;;;;14.01;52.44;99554.72;5013348;28;20475;-85
2021/05/06 08:36:45;;;;;;;6.60;2.10;;;;;;;13.73;54.53;99553.06;5017242;28;20026;-85
2021/05/06 08:39:10;;;;;;;3.72;1.90;;;;;;;13.58;56.46;99552.72;5011516;28;20041;-85
2021/05/06 08:41:36;;;;;;;2.83;1.80;;;;;;;13.36;58.40;99549.44;5018314;28;20064;-85
2021/05/06 08:44:03;;;;;;;4.95;2.13;;;;;;;13.40;57.17;99564.00;5016842;28;20532;-85
2021/05/06 08:46:40;;;;;;;3.90;2.35;;;;;;;13.43;59.92;99553.19;5016992;28;20483;-84
2021/05/06 08:49:07;;;;;;;4.57;2.00;;;;;;;13.92;57.73;99552.13;5015790;28;20467;-85
2021/05/06 08:51:34;;;;;;;3.53;2.20;;;;;;;14.28;55.77;99553.88;5015428;28;20037;-84
2021/05/06 08:53:59;;;;;;;3.88;2.13;;;;;;;14.65;54.98;99549.47;5018909;28;20033;-86
2021/05/06 08:56:26;;;;;;;4.30;1.92;;;;;;;15.77;52.34;99551.41;5024885;28;20029;-85
2021/05/06 08:58:51;;;;;;;6.82;2.28;;;;;;;15.99;50.49;99557.13;5015506;28;20029;-85
2021/05/06 09:01:17;;;;;;;6.35;2.40;;;;;;;16.26;49.41;99546.28;5015409;28;20105;-86
2021/05/06 09:03:43;;;;;;;5.25;2.50;;;;;;;15.88;51.49;99546.81;5012434;28;20092;-85
2021/05/06 09:06:12;;;;;;;12.40;2.47;;;;;;;15.68;51.05;99565.56;5012197;28;20045;-86
2021/05/06 09:08:40;;;;;;;3.95;2.10;;;;;;;15.30;51.87;99554.44;5012267;28;20026;-83
2021/05/06 09:11:05;;;;;;;8.18;1.73;;;;;;;13.72;54.18;99560.13;5020559;28;20029;-84
2021/05/06 09:13:32;;;;;;;5.70;1.88;;;;;;;14.39;55.07;99559.91;5022943;28;20041;-83
2021/05/06 09:15:57;;;;;;;5.00;1.80;;;;;;;14.00;55.11;99552.22;5014621;28;20461;-83
2021/05/06 09:18:37;;;;;;;6.03;2.03;;;;;;;13.89;58.66;99553.28;5010625;28;20029;-83
2021/05/06 09:21:05;;;;;;;2.97;1.75;;;;;;;14.50;57.26;99554.44;5017729;28;20017;-83
2021/05/06 09:23:32;;;;;;;4.72;2.08;;;;;;;14.65;56.31;99550.31;5019068;28;20386;-83
2021/05/06 09:26:06;;;;;;;4.13;1.80;;;;;;;15.04;54.11;99557.88;5010090;28;20033;-83
2021/05/06 09:28:34;;;;;;;7.50;1.65;;;;;;;15.47;52.78;99552.72;5010422;28;20113;-82
2021/05/06 09:31:08;;;;;;;4.68;1.50;;;;;;;15.53;54.80;99560.03;5012094;28;20034;-83
2021/05/06 09:33:34;;;;;;;3.58;1.70;;;;;;;15.56;52.89;99558.88;5010939;28;20040;-83
2021/05/06 09:36:17;;;;;;;1.73;1.05;;;;;;;15.57;49.37;99568.50;5011066;28;20037;-83
2021/05/06 09:38:45;;;;;;;3.15;1.10;;;;;;;16.28;48.23;99558.56;5010269;28;20441;-83
2021/05/06 09:41:13;;;;;;;5.47;1.35;;;;;;;17.18;46.16;99563.94;5010771;28;20492;-83
2021/05/06 09:43:43;;;;;;;3.25;1.30;;;;;;;17.09;44.83;99557.00;5012329;28;20026;-83
2021/05/06 09:46:29;;;;;;;4.70;1.33;;;;;;;17.68;44.57;99554.88;5020299;28;20483;-83
2021/05/06 09:48:59;;;;;;;2.85;1.17;;;;;;;16.83;43.60;99553.50;5009967;28;20025;-83
2021/05/06 09:51:36;;;;;;;3.75;1.20;;;;;;;16.30;46.82;99564.50;5010747;28;20030;-83
2021/05/06 09:54:03;;;;;;;7.90;1.50;;;;;;;16.59;45.22;99567.56;5015365;28;20029;-83
2021/05/06 09:56:28;;;;;;;5.25;1.08;;;;;;;16.81;45.91;99567.91;5010773;28;20032;-83
2021/05/06 09:58:57;;;;;;;3.67;1.50;;;;;;;16.91;43.97;99571.25;4994290;28;588574;-83
2021/05/06 10:01:31;;;;;;;3.90;1.25;;;;;;;16.83;45.95;99576.56;5011124;28;20057;-83
2021/05/06 10:04:12;;;;;;;3.08;1.42;;;;;;;17.36;44.12;99577.03;5015836;28;20084;-82
2021/05/06 10:06:37;;;;;;;1.15;0.75;;;;;;;17.16;43.00;99574.72;5017302;28;20037;-83
2021/05/06 10:09:03;;;;;;;4.07;0.90;;;;;;;18.15;41.24;99569.16;5011664;28;20030;-83
2021/05/06 10:11:28;;;;;;;2.38;0.90;;;;;;;18.62;40.17;99579.69;5015943;28;20525;-83
2021/05/06 10:13:54;;;;;;;1.30;0.80;;;;;;;18.28;40.75;99574.72;5014220;28;20101;-83
2021/05/06 10:16:20;;;;;;;3.85;0.73;;;;;;;18.24;40.27;99574.22;5015483;28;20049;-84
2021/05/06 10:18:45;;;;;;;2.17;0.70;;;;;;;18.13;41.40;99582.63;5015026;28;20065;-83
2021/05/06 10:21:14;;;;;;;2.03;1.00;;;;;;;18.93;38.92;99577.97;5015050;28;20026;-83
2021/05/06 10:23:41;;;;;;;1.88;0.90;;;;;;;19.77;39.24;99580.53;5016565;28;20024;-84
2021/05/06 10:26:07;;;;;;;2.70;1.00;;;;;;;21.37;35.57;99575.03;5024658;28;20026;-83
2021/05/06 10:28:34;;;;;;;1.30;0.80;;;;;;;21.82;32.26;99574.72;5018621;28;20036;-84
2021/05/06 10:31:02;;;;;;;3.03;0.75;;;;;;;21.13;34.46;99580.78;5013753;28;20025;-83
2021/05/06 10:33:29;;;;;;;2.72;1.42;;;;;;;20.21;34.02;99582.31;5014799;28;20049;-84
2021/05/06 10:35:56;;;;;;;4.95;1.08;;;;;;;21.17;35.83;99574.88;5021801;28;20168;-84
2021/05/06 10:38:22;;;;;;;3.67;0.88;;;;;;;21.52;32.59;99585.63;5014646;28;20030;-84
2021/05/06 10:40:49;;;;;;;3.13;0.90;;;;;;;21.84;31.82;99577.16;5015909;28;20025;-84
2021/05/06 10:43:28;;;;;;;1.38;0.52;;;;;;;22.49;29.87;99575.81;5017699;28;20045;-84
2021/05/06 10:45:59;;;;;;;0.85;0.40;;;;;;;23.40;26.28;99577.13;5014994;28;20057;-84
2021/05/06 10:49:03;;;;;;;2.63;0.77;;;;;;;22.89;29.41;99575.88;5014752;28;20033;-85
2021/05/06 10:51:39;;;;;;;2.38;0.70;;;;;;;21.86;31.69;99575.97;4983697;28;20095;-85
2021/05/06 10:54:27;;;;;;;2.92;0.95;;;;;;;20.88;32.29;99589.19;5014636;28;20018;-84
2021/05/06 10:57:22;;;;;;;1.27;0.60;;;;;;;20.71;33.47;99593.94;5016214;28;20113;-84
2021/05/06 10:59:48;;;;;;;1.63;0.95;;;;;;;19.75;34.02;99590.56;5017894;28;20026;-84
2021/05/06 11:02:44;;;;;;;1.35;0.70;;;;;;;19.49;33.77;99577.63;5014420;28;20026;-84
2021/05/06 11:05:10;;;;;;;1.30;0.57;;;;;;;19.15;33.43;99578.97;5013292;28;20025;-84
2021/05/06 11:07:36;;;;;;;0.85;0.35;;;;;;;20.20;32.70;99577.97;5015896;28;20430;-84
2021/05/06 11:10:04;;;;;;;2.00;0.75;;;;;;;22.12;30.10;99569.91;5017807;28;20030;-83
2021/05/06 11:12:31;;;;;;;1.70;0.63;;;;;;;23.08;26.54;99566.22;5013391;28;20037;-84
2021/05/06 11:15:03;;;;;;;1.80;0.57;;;;;;;23.11;28.95;99567.69;5014745;28;20413;-85
2021/05/06 11:17:35;;;;;;;1.50;0.50;;;;;;;22.66;29.48;99560.19;5005036;28;20475;-85
2021/05/06 11:20:28;;;;;;;1.88;0.50;;;;;;;22.60;28.39;99566.34;5022875;28;20084;-87
2021/05/06 11:22:57;;;;;;;1.73;0.85;;;;;;;20.64;29.18;99576.25;5011324;28;20036;-94
2021/05/06 11:25:37;;;;;;;0.65;0.30;;;;;;;19.82;31.18;99578.13;5017135;28;20104;-87
2021/05/06 11:28:11;;;;;;;0.73;0.28;;;;;;;19.11;30.30;99575.00;5034568;28;20052;-87
2021/05/06 11:30:42;;;;;;;1.10;0.30;;;;;;;19.25;28.71;99576.84;5032566;28;20036;-88
2021/05/06 11:33:17;;;;;;;0.65;0.40;;;;;;;18.37;32.48;99573.69;5023930;28;20075;-88
2021/05/06 11:36:02;;;;;;;1.55;0.60;;;;;;;18.67;32.99;99578.31;5018905;28;20395;-90
2021/05/06 11:38:37;;;;;;;1.25;0.50;;;;;;;18.11;33.47;99586.44;5015072;28;20033;-88
2021/05/06 11:41:02;;;;;;;1.38;0.63;;;;;;;17.67;34.40;99582.41;5027367;28;20132;-90
2021/05/06 11:48:51;;;;;;;0.98;0.65;;;;;;;17.98;33.52;99573.72;5044848;28;20708;-96
2021/05/06 11:51:23;;;;;;;4.22;0.77;;;;;;;18.13;36.05;99579.97;5100666;22;20049;-96
2021/05/06 11:54:15;;;;;;;1.92;0.57;;;;;;;19.56;33.43;99583.88;5053220;28;20081;-95
2021/05/06 11:56:53;;;;;;;2.30;0.83;;;;;;;19.30;31.99;99574.50;5067615;22;20112;-96
2021/05/06 11:59:21;;;;;;;2.30;0.60;;;;;;;19.97;30.49;99580.78;5035148;28;20506;-92
2021/05/06 12:01:46;;;;;;;0.80;0.60;;;;;;;19.59;31.20;99568.38;5037334;23;20029;-96
2021/05/06 12:06:39;;;;;;;2.55;0.70;;;;;;;22.13;28.24;99581.41;5033850;28;20388;-96
2021/05/06 12:09:06;;;;;;;1.00;0.60;;;;;;;22.12;27.41;99567.22;5089435;22;20697;-94
2021/05/06 12:11:40;;;;;;;5.70;0.90;;;;;;;24.07;27.34;99574.28;5032421;28;20024;-89
2021/05/06 12:14:07;;;;;;;1.40;0.60;;;;;;;23.03;26.56;99574.06;5014304;28;20133;-91
2021/05/06 12:16:34;;;;;;;1.05;0.47;;;;;;;22.75;25.66;99568.88;5030871;28;20048;-92
2021/05/06 12:19:12;;;;;;;1.30;0.57;;;;;;;21.78;27.55;99568.09;5031917;28;20018;-86
2021/05/06 12:22:04;;;;;;;2.67;0.70;;;;;;;21.77;26.81;99575.28;5032646;28;20026;-85
2021/05/06 12:24:32;;;;;;;1.90;0.70;;;;;;;22.43;25.75;99573.09;5028132;28;20374;-84
2021/05/06 12:26:59;;;;;;;1.52;0.40;;;;;;;22.68;27.47;99571.50;5031068;28;20453;-85
2021/05/06 12:29:28;;;;;;;2.83;0.65;;;;;;;21.65;27.90;99579.53;5031404;28;20025;-86
2021/05/06 12:31:53;;;;;;;1.88;0.95;;;;;;;21.17;28.37;99579.41;5030674;28;20032;-84
2021/05/06 12:34:24;;;;;;;4.85;0.70;;;;;;;20.12;28.79;99581.59;5030665;28;20021;-85
2021/05/06 12:36:52;;;;;;;1.58;0.60;;;;;;;20.03;29.97;99589.88;5031767;28;20075;-84
2021/05/06 12:39:19;;;;;;;1.05;0.63;;;;;;;19.96;29.86;99576.47;5031673;28;20413;-84
2021/05/06 12:41:51;;;;;;;1.00;0.50;;;;;;;19.51;29.59;99572.94;5031139;28;20025;-86
2021/05/06 12:44:36;;;;;;;1.52;0.60;;;;;;;18.77;28.64;99578.91;5032680;28;20025;-85
2021/05/06 12:47:12;;;;;;;4.95;1.10;;;;;;;19.06;31.18;99585.38;5030718;28;20029;-86
2021/05/06 12:49:37;;;;;;;1.20;0.80;;;;;;;19.11;29.67;99580.31;5032049;28;20026;-86
2021/05/06 12:52:03;;;;;;;0.82;0.50;;;;;;;18.91;30.21;99585.31;5031294;28;20079;-85
2021/05/06 12:54:35;;;;;;;2.42;0.88;;;;;;;18.30;30.61;99585.19;5028973;28;20029;-85
2021/05/06 12:57:16;;;;;;;2.47;0.80;;;;;;;19.91;29.72;99574.38;5014917;28;20025;-85
2021/05/06 12:59:49;;;;;;;2.13;0.60;;;;;;;21.21;28.17;99578.00;5027658;28;20490;-86
2021/05/06 13:02:16;;;;;;;1.52;0.57;;;;;;;20.97;27.46;99587.22;5031687;28;20514;-86
2021/05/06 13:04:55;;;;;;;1.48;0.80;;;;;;;20.94;27.35;99582.28;5029520;28;20797;-85
2021/05/06 13:07:21;;;;;;;1.20;0.40;;;;;;;21.62;26.42;99587.94;5031613;28;20533;-86
2021/05/06 13:09:48;;;;;;;1.45;0.73;;;;;;;20.41;24.06;99583.34;5032490;28;20033;-86
2021/05/06 13:12:19;;;;;;;1.15;0.77;;;;;;;20.86;26.49;99591.25;5031650;28;20036;-86
2021/05/06 13:14:51;;;;;;;3.15;0.68;;;;;;;19.39;25.71;99584.06;5031683;28;20017;-85
2021/05/06 13:17:26;;;;;;;2.92;1.35;;;;;;;19.80;28.61;99590.81;5031135;28;20025;-86
2021/05/06 13:19:52;;;;;;;1.25;0.75;;;;;;;20.35;28.60;99577.97;5027582;28;20386;-85
2021/05/06 13:22:19;;;;;;;5.00;0.68;;;;;;;19.98;26.85;99577.09;5027867;28;20463;-85
2021/05/06 13:24:46;;;;;;;1.45;0.70;;;;;;;20.28;27.57;99591.22;5030167;28;20032;-85
2021/05/06 13:27:22;;;;;;;3.05;0.80;;;;;;;20.35;26.32;99596.63;5030902;28;20072;-86
2021/05/06 13:29:49;;;;;;;4.25;0.60;;;;;;;19.74;28.85;99603.00;5026373;28;20025;-85
2021/05/06 13:32:14;;;;;;;1.65;0.70;;;;;;;19.14;28.81;99591.44;5030260;28;20025;-86
2021/05/06 13:34:53;;;;;;;1.48;0.60;;;;;;;18.65;29.67;99599.75;5013676;28;20032;-85
2021/05/06 13:37:19;;;;;;;2.65;0.90;;;;;;;18.51;28.65;99598.69;5029993;28;20433;-85
2021/05/06 13:39:44;;;;;;;1.50;0.95;;;;;;;17.74;29.42;99596.66;5032072;28;20025;-86
2021/05/06 13:42:09;;;;;;;4.78;0.60;;;;;;;17.70;30.80;99598.00;5030389;28;20499;-85
2021/05/06 13:44:35;;;;;;;1.30;0.80;;;;;;;17.52;31.03;99602.72;5027655;28;20021;-85
2021/05/06 13:47:05;;;;;;;2.28;0.80;;;;;;;16.60;29.29;99600.16;5033810;28;20029;-85
2021/05/06 13:49:33;;;;;;;0.70;0.57;;;;;;;17.25;30.15;99607.38;5023733;28;20037;-84
2021/05/06 13:52:00;;;;;;;6.70;0.90;;;;;;;17.05;30.73;99598.94;5034110;28;20434;-86
2021/05/06 13:54:27;;;;;;;1.67;0.75;;;;;;;17.22;31.01;99599.75;5030885;28;20021;-85
2021/05/06 13:56:53;;;;;;;1.05;0.55;;;;;;;17.79;30.36;99604.13;5029619;28;20026;-89
2021/05/06 13:59:19;;;;;;;1.05;0.70;;;;;;;17.54;29.66;99603.38;5038664;28;20517;-90
2021/05/06 14:01:51;;;;;;;1.73;0.52;;;;;;;17.74;30.56;99598.50;5043057;28;20029;-91
2021/05/06 14:04:17;;;;;;;3.00;1.27;;;;;;;18.08;28.08;99595.56;5035948;28;20311;-90
2021/05/06 14:06:42;;;;;;;1.45;0.63;;;;;;;18.28;29.19;99587.19;5015499;28;20112;-91
2021/05/06 14:09:14;;;;;;;1.55;0.68;;;;;;;18.83;27.29;99602.16;5031894;28;20114;-90
2021/05/06 14:11:39;;;;;;;;;;;;;;;18.16;28.51;99608.81;5034268;28;20037;-91
2021/05/06 14:14:04;;;;;;;0.90;0.60;;;;;;;18.21;27.66;99601.16;5032638;28;19913;-90
2021/05/06 14:16:30;;;;;;;1.30;0.50;;;;;;;18.29;26.51;99594.19;5036074;28;20037;-91
2021/05/06 14:18:56;;;;;;;1.30;0.60;;;;;;;17.19;28.38;99613.34;5034748;28;20033;-89
2021/05/06 14:21:23;;;;;;;0.60;0.40;;;;;;;17.00;29.00;99610.03;5035562;28;20079;-90
2021/05/06 14:23:49;;;;;;;2.58;0.77;;;;;;;16.65;27.98;99617.25;5035702;28;20112;-90
2021/05/06 14:26:15;;;;;;;1.40;0.40;;;;;;;16.77;29.22;99619.59;5026430;28;20549;-90
2021/05/06 14:28:42;;;;;;;2.45;0.80;;;;;;;16.60;28.31;99618.72;5036723;28;20029;-91
2021/05/06 14:31:09;;;;;;;2.35;0.65;;;;;;;16.51;30.47;99617.88;5035990;28;20052;-91
2021/05/06 14:33:34;;;;;;;1.27;0.45;;;;;;;16.21;29.98;99625.41;5036529;28;20035;-91
2021/05/06 14:35:59;;;;;;;3.25;0.70;;;;;;;16.76;29.15;99621.41;5036290;28;20084;-91
2021/05/06 14:38:25;;;;;;;1.70;0.50;;;;;;;16.85;31.06;99617.81;5034172;28;20029;-91
2021/05/06 14:40:50;;;;;;;1.65;0.80;;;;;;;16.92;29.91;99620.63;5033742;28;20037;-90
2021/05/06 14:43:16;;;;;;;1.05;0.68;;;;;;;17.16;28.13;99621.63;5035101;28;20043;-90
2021/05/06 14:45:41;;;;;;;3.13;0.50;;;;;;;17.05;26.97;99628.09;5028433;28;20085;-90
2021/05/06 14:48:10;;;;;;;1.15;0.63;;;;;;;16.36;28.87;99635.41;5032505;28;20368;-91
2021/05/06 14:50:36;;;;;;;1.20;0.50;;;;;;;16.57;30.01;99627.03;5032025;28;20395;-90
2021/05/06 14:53:01;;;;;;;1.33;0.50;;;;;;;16.65;30.09;99630.50;5018507;28;20067;-91
2021/05/06 14:55:27;;;;;;;1.13;0.57;;;;;;;17.00;28.21;99627.75;5035401;28;20022;-91
2021/05/06 14:57:53;;;;;;;1.55;0.52;;;;;;;17.20;28.13;99633.56;5036772;28;20408;-90
2021/05/06 15:00:21;;;;;;;1.05;0.60;;;;;;;17.43;28.93;99634.53;5019041;28;20063;-91
2021/05/06 15:02:47;;;;;;;3.30;0.73;;;;;;;17.66;28.85;99633.88;5034526;28;20483;-91
2021/05/06 15:05:13;;;;;;;2.05;0.60;;;;;;;17.59;28.28;99630.22;5019157;28;20064;-90
2021/05/06 15:07:38;;;;;;;3.83;0.82;;;;;;;17.36;28.96;99633.56;5035040;28;20029;-90
2021/05/06 15:10:05;;;;;;;0.75;0.50;;;;;;;17.77;29.54;99632.66;5034040;28;20108;-91
2021/05/06 15:12:32;;;;;;;1.88;0.60;;;;;;;16.44;28.77;99627.47;5035852;28;20026;-90
2021/05/06 15:14:58;;;;;;;0.95;0.47;;;;;;;16.37;27.39;99626.44;5032029;28;20025;-90
2021/05/06 15:17:24;;;;;;;2.85;0.73;;;;;;;16.74;30.26;99639.28;5035242;28;20029;-91
2021/05/06 15:19:49;;;;;;;0.45;0.30;;;;;;;17.50;28.20;99632.06;5031960;28;20203;-90